Time;durP1;ratioP1;P1;durP2;ratioP2;P2;SDS_P1;SDS_P2;PMS_P1;PMS_P2;Temp;Humidity;BMP_temperature;BMP_pressure;BME280_temperature;BME280_humidity;BME280_pressure;Samples;Min_cycle;Max_cycle;Signal;HPM_P1;HPM_P2
2022/01/27 00:12:42;;;;;;;18.05;4.63;;;5.60;99.90;;;;;;20824335;28;20501;-45
2022/01/27 00:22:43;;;;;;;16.33;5.28;;;5.60;99.90;;;;;;20826838;28;20052;-44
2022/01/27 00:32:43;;;;;;;13.25;4.40;;;5.60;99.90;;;;;;20843179;28;20025;-44
2022/01/27 00:42:45;;;;;;;17.08;4.53;;;5.60;99.90;;;;;;20836986;28;20033;-44
2022/01/27 00:52:53;;;;;;;11.50;3.97;;;5.70;99.90;;;;;;20825885;28;20057;-44
2022/01/27 01:13:56;;;;;;;17.02;4.90;;;5.70;99.90;;;;;;20826664;28;20025;-45
2022/01/27 01:33:57;;;;;;;9.80;3.72;;;5.80;99.90;;;;;;20841146;28;20040;-45
2022/01/27 01:43:58;;;;;;;13.80;4.35;;;5.80;99.90;;;;;;20836319;28;20049;-44
2022/01/27 01:53:59;;;;;;;10.50;3.72;;;5.80;99.90;;;;;;20820736;28;20039;-45
2022/01/27 02:04:05;;;;;;;12.23;4.38;;;5.90;99.90;;;;;;20800397;28;20052;-44
2022/01/27 02:24:28;;;;;;;14.88;5.55;;;5.70;99.90;;;;;;20835650;28;20057;-45
2022/01/27 02:34:29;;;;;;;8.27;3.28;;;5.60;99.90;;;;;;20844623;28;20352;-45
2022/01/27 02:44:46;;;;;;;15.35;5.03;;;5.50;99.90;;;;;;20825201;28;20063;-44
2022/01/27 02:54:50;;;;;;;13.27;5.80;;;5.40;99.90;;;;;;20855668;28;20026;-44
2022/01/27 03:04:52;;;;;;;14.07;4.97;;;5.50;99.90;;;;;;20841772;28;20053;-45
2022/01/27 03:14:53;;;;;;;14.87;4.60;;;5.50;99.90;;;;;;20831290;28;20032;-45
2022/01/27 03:24:53;;;;;;;13.23;4.70;;;5.60;99.90;;;;;;20848681;28;20283;-45
2022/01/27 03:34:54;;;;;;;15.25;5.22;;;5.70;99.90;;;;;;20840457;28;20525;-45
2022/01/27 03:44:55;;;;;;;13.25;5.63;;;5.60;99.90;;;;;;20821485;28;20053;-45
2022/01/27 03:54:56;;;;;;;9.83;3.93;;;5.60;99.90;;;;;;20834412;28;20042;-44
2022/01/27 04:04:56;;;;;;;16.63;4.70;;;5.60;99.90;;;;;;20832566;28;20288;-45
2022/01/27 04:14:57;;;;;;;14.30;4.35;;;5.60;99.90;;;;;;20832549;28;20500;-45
2022/01/27 04:24:58;;;;;;;10.10;3.83;;;5.60;99.90;;;;;;20829947;28;20098;-44
2022/01/27 04:35:03;;;;;;;19.88;5.43;;;5.40;99.90;;;;;;20840549;28;20083;-45
2022/01/27 04:45:09;;;;;;;11.00;4.03;;;5.40;99.90;;;;;;20832744;28;20049;-44
2022/01/27 04:55:12;;;;;;;14.82;4.43;;;5.40;99.90;;;;;;20815226;28;20048;-45
2022/01/27 05:05:13;;;;;;;12.85;5.95;;;5.50;99.90;;;;;;20828512;28;20050;-45
2022/01/27 05:15:13;;;;;;;15.90;4.35;;;5.60;99.90;;;;;;20836985;28;20045;-45
2022/01/27 05:25:14;;;;;;;11.52;3.67;;;5.70;99.90;;;;;;20839487;28;20587;-45
2022/01/27 05:35:15;;;;;;;10.70;3.25;;;5.90;99.90;;;;;;20841726;28;20036;-45
2022/01/27 05:45:16;;;;;;;10.23;3.25;;;6.20;99.90;;;;;;20845163;28;20126;-45
2022/01/27 05:55:17;;;;;;;8.15;3.63;;;6.60;99.90;;;;;;20853699;28;20036;-45
2022/01/27 06:05:17;;;;;;;8.67;2.37;;;6.90;99.90;;;;;;20853157;28;20523;-45
2022/01/27 06:15:28;;;;;;;11.35;2.92;;;7.00;99.90;;;;;;20845518;28;20727;-45
2022/01/27 06:25:30;;;;;;;6.18;2.92;;;7.10;99.90;;;;;;20856628;28;20057;-44
2022/01/27 06:35:31;;;;;;;9.82;3.22;;;7.20;99.90;;;;;;20848509;28;20059;-45
2022/01/27 06:45:32;;;;;;;6.78;3.17;;;7.30;99.90;;;;;;20842777;28;20053;-44
2022/01/27 06:55:33;;;;;;;12.85;3.75;;;7.40;99.90;;;;;;20831828;28;20536;-45
2022/01/27 07:05:37;;;;;;;14.77;3.05;;;7.30;99.90;;;;;;20841318;28;20060;-45
2022/01/27 07:15:38;;;;;;;11.10;3.13;;;7.00;99.90;;;;;;20845956;28;20036;-45
2022/01/27 07:25:39;;;;;;;6.93;3.35;;;6.80;99.90;;;;;;20847566;28;20053;-45
2022/01/27 07:35:41;;;;;;;14.40;3.65;;;6.70;99.90;;;;;;20839987;28;20087;-46
2022/01/27 07:45:41;;;;;;;10.20;3.38;;;6.80;99.90;;;;;;20821965;28;20064;-46
2022/01/27 07:55:42;;;;;;;13.52;3.63;;;6.80;99.90;;;;;;20829598;28;20041;-45
2022/01/27 08:05:43;;;;;;;10.45;2.70;;;6.90;99.90;;;;;;20834994;28;20068;-45
2022/01/27 08:15:43;;;;;;;14.65;3.35;;;6.90;99.90;;;;;;20840191;28;20043;-45
2022/01/27 08:25:49;;;;;;;9.88;3.38;;;7.10;99.90;;;;;;20821238;28;20064;-45
2022/01/27 08:35:50;;;;;;;9.55;3.15;;;7.20;99.90;;;;;;20839201;28;20121;-45
2022/01/27 08:45:51;;;;;;;12.80;3.05;;;7.20;99.90;;;;;;20836516;28;20053;-45
2022/01/27 08:55:52;;;;;;;8.38;2.60;;;7.30;99.90;;;;;;20825160;28;20508;-45
2022/01/27 09:05:53;;;;;;;14.32;2.95;;;7.30;99.90;;;;;;20826613;28;20053;-45
2022/01/27 09:15:58;;;;;;;10.35;2.22;;;7.40;99.90;;;;;;20820532;28;20037;-45
2022/01/27 09:26:04;;;;;;;10.90;2.67;;;7.40;99.90;;;;;;20813368;28;20092;-45
2022/01/27 09:36:11;;;;;;;10.52;3.13;;;7.50;99.90;;;;;;20835544;28;20048;-45
2022/01/27 09:46:13;;;;;;;4.67;2.20;;;7.60;99.90;;;;;;20822493;28;20049;-45
2022/01/27 09:56:16;;;;;;;10.50;2.78;;;7.60;99.90;;;;;;20832857;28;20048;-45
2022/01/27 10:06:18;;;;;;;10.23;2.55;;;7.80;99.90;;;;;;20821611;28;20516;-45
2022/01/27 10:16:41;;;;;;;6.50;1.77;;;7.90;99.90;;;;;;20828588;28;20087;-45
2022/01/27 10:26:45;;;;;;;7.60;2.67;;;8.00;99.90;;;;;;20830650;28;20067;-45
2022/01/27 10:36:46;;;;;;;7.07;2.08;;;8.00;99.90;;;;;;20825912;28;20493;-45
2022/01/27 10:47:09;;;;;;;4.82;1.40;;;8.00;99.90;;;;;;20823060;28;20468;-45
2022/01/27 10:57:12;;;;;;;4.95;2.60;;;8.10;99.90;;;;;;20813684;28;20560;-45
2022/01/27 11:07:16;;;;;;;6.10;1.55;;;8.20;99.90;;;;;;20817572;28;20080;-45
2022/01/27 11:17:20;;;;;;;7.80;1.70;;;8.40;99.90;;;;;;20773651;28;20128;-45
2022/01/27 11:27:23;;;;;;;4.68;1.85;;;8.40;99.90;;;;;;20799074;28;20046;-45
2022/01/27 11:37:36;;;;;;;4.10;1.60;;;8.40;99.90;;;;;;20786415;28;20123;-45
2022/01/27 11:47:51;;;;;;;8.10;2.35;;;8.50;99.90;;;;;;20792255;28;20418;-45
2022/01/27 11:58:11;;;;;;;6.80;2.63;;;8.60;99.90;;;;;;20816507;28;20050;-45
2022/01/27 12:08:12;;;;;;;5.07;1.80;;;8.70;99.90;;;;;;20812476;28;20053;-45
2022/01/27 12:18:37;;;;;;;4.13;1.80;;;8.80;99.90;;;;;;20809846;28;20041;-45
2022/01/27 12:28:38;;;;;;;8.65;1.40;;;9.00;99.90;;;;;;20801540;28;20291;-45
2022/01/27 12:38:42;;;;;;;10.15;3.88;;;9.10;99.90;;;;;;20794123;28;20316;-45
2022/01/27 12:48:48;;;;;;;6.32;1.48;;;9.20;99.90;;;;;;20823312;28;20042;-45
2022/01/27 12:58:49;;;;;;;6.00;1.33;;;9.20;99.90;;;;;;20796973;28;20406;-45
2022/01/27 13:08:50;;;;;;;11.47;1.60;;;9.30;99.90;;;;;;20813889;28;20033;-45
2022/01/27 13:19:04;;;;;;;4.90;1.38;;;9.50;99.90;;;;;;20803206;28;20306;-45
2022/01/27 13:29:05;;;;;;;6.65;1.08;;;9.80;99.90;;;;;;20806694;28;20037;-45
2022/01/27 13:49:19;;;;;;;4.60;1.02;;;9.90;99.90;;;;;;20799900;28;20048;-45
2022/01/27 13:59:27;;;;;;;7.28;1.33;;;9.80;99.90;;;;;;20805124;28;20041;-45
2022/01/27 14:09:29;;;;;;;3.25;1.00;;;9.70;99.90;;;;;;20805999;28;20033;-45
2022/01/27 14:19:32;;;;;;;2.25;0.68;;;9.60;99.90;;;;;;20816339;28;20525;-45
2022/01/27 14:29:33;;;;;;;7.90;1.00;;;9.50;99.90;;;;;;20821807;28;20106;-45
2022/01/27 14:39:34;;;;;;;5.70;0.60;;;9.50;99.90;;;;;;20814737;28;20581;-45
2022/01/27 14:49:40;;;;;;;4.27;0.40;;;9.50;99.90;;;;;;20834615;28;20049;-45
2022/01/27 14:59:41;;;;;;;2.92;0.30;;;9.40;99.90;;;;;;20828369;28;20307;-45
2022/01/27 15:09:41;;;;;;;4.97;0.60;;;9.30;99.90;;;;;;20818196;28;20048;-45
2022/01/27 15:19:42;;;;;;;2.58;0.32;;;9.20;99.90;;;;;;20824469;28;20144;-44
2022/01/27 15:29:44;;;;;;;2.55;0.38;;;9.00;99.90;;;;;;20836429;28;20040;-44
2022/01/27 15:39:51;;;;;;;4.88;0.88;;;9.00;99.90;;;;;;20833323;28;20049;-45
2022/01/27 15:49:53;;;;;;;5.97;0.82;;;9.00;99.90;;;;;;20768538;28;20052;-45
2022/01/27 15:59:56;;;;;;;5.75;1.05;;;8.90;99.90;;;;;;20706941;28;20103;-45
2022/01/27 16:09:57;;;;;;;4.20;0.32;;;8.90;99.90;;;;;;20743424;28;20118;-45
2022/01/27 16:19:58;;;;;;;2.13;0.50;;;8.70;99.90;;;;;;20730723;28;20049;-45
2022/01/27 16:29:59;;;;;;;6.22;2.25;;;8.60;99.90;;;;;;20752070;28;20043;-45
2022/01/27 16:40:00;;;;;;;6.13;1.30;;;8.50;99.90;;;;;;20747937;28;20119;-45
2022/01/27 16:50:01;;;;;;;3.75;0.77;;;8.30;99.90;;;;;;20800037;28;20296;-45
2022/01/27 17:00:07;;;;;;;4.38;0.60;;;8.10;99.90;;;;;;20815931;28;20036;-45
2022/01/27 17:10:08;;;;;;;3.10;0.82;;;7.80;99.90;;;;;;20846679;28;20046;-45
2022/01/27 17:20:10;;;;;;;4.18;0.88;;;7.80;99.90;;;;;;20878814;28;20723;-44
2022/01/27 17:30:16;;;;;;;2.90;0.90;;;7.70;99.90;;;;;;20852562;28;20026;-45
2022/01/27 17:40:20;;;;;;;2.45;0.65;;;7.60;99.90;;;;;;20858000;28;20053;-45
2022/01/27 17:50:22;;;;;;;9.93;1.20;;;7.50;99.90;;;;;;20867890;28;20052;-45
2022/01/27 18:00:23;;;;;;;4.82;0.50;;;7.50;99.90;;;;;;20849142;28;20056;-44
2022/01/27 18:10:25;;;;;;;2.67;0.88;;;7.50;99.90;;;;;;20875083;28;20073;-44
2022/01/27 18:20:26;;;;;;;7.80;0.68;;;7.60;99.90;;;;;;20875176;28;20045;-44
2022/01/27 18:30:27;;;;;;;5.43;0.77;;;7.60;99.90;;;;;;20871874;28;20044;-45
2022/01/27 18:40:28;;;;;;;7.13;1.60;;;7.60;99.90;;;;;;20882989;28;20040;-45
2022/01/27 18:50:28;;;;;;;4.13;0.70;;;7.50;99.90;;;;;;20890640;28;20376;-45
2022/01/27 19:00:30;;;;;;;10.40;1.88;;;7.50;99.90;;;;;;20869723;28;20313;-44
2022/01/27 19:10:31;;;;;;;9.35;0.80;;;7.40;99.90;;;;;;20885642;28;20037;-45
2022/01/27 19:20:38;;;;;;;4.55;0.70;;;7.30;99.90;;;;;;20874332;28;20341;-45
2022/01/27 19:30:39;;;;;;;1.67;0.70;;;7.30;99.90;;;;;;20887096;28;20043;-45
2022/01/27 19:40:42;;;;;;;2.13;0.55;;;7.30;99.90;;;;;;20875676;28;20044;-44
2022/01/27 19:50:43;;;;;;;5.95;0.88;;;7.20;99.90;;;;;;20881552;28;20093;-45
2022/01/27 20:00:44;;;;;;;5.88;0.77;;;7.10;99.90;;;;;;20878962;28;20048;-44
2022/01/27 20:10:47;;;;;;;2.90;0.98;;;7.10;99.90;;;;;;20875806;28;20404;-45
2022/01/27 20:20:47;;;;;;;4.43;0.60;;;7.00;99.90;;;;;;20882024;28;20044;-45
2022/01/27 20:30:50;;;;;;;2.42;0.68;;;6.90;99.90;;;;;;20877922;28;20052;-45
2022/01/27 20:40:51;;;;;;;5.60;0.70;;;6.80;99.90;;;;;;20861913;28;20060;-45
2022/01/27 20:50:53;;;;;;;1.85;0.75;;;6.90;99.90;;;;;;20862039;28;20045;-44
2022/01/27 21:00:54;;;;;;;5.63;1.02;;;7.00;99.90;;;;;;20865077;28;20426;-45
2022/01/27 21:10:56;;;;;;;7.00;1.02;;;6.90;99.90;;;;;;20851306;28;20036;-44
2022/01/27 21:20:59;;;;;;;9.30;0.85;;;6.90;99.90;;;;;;20827541;28;20052;-44
2022/01/27 21:31:00;;;;;;;3.50;0.70;;;6.90;99.90;;;;;;20820233;28;20129;-45
2022/01/27 21:41:01;;;;;;;8.75;2.88;;;7.00;99.90;;;;;;20819499;28;20315;-44
2022/01/27 21:51:02;;;;;;;1.17;0.40;;;7.00;99.90;;;;;;20810006;28;20564;-45
2022/01/27 22:01:05;;;;;;;0.40;0.15;;;7.10;99.90;;;;;;20835206;28;20379;-44
2022/01/27 22:11:06;;;;;;;6.55;0.98;;;7.00;99.90;;;;;;20836223;28;20064;-45
2022/01/27 22:21:07;;;;;;;1.95;0.88;;;6.90;99.90;;;;;;20832865;28;20066;-44
2022/01/27 22:31:07;;;;;;;6.78;1.33;;;6.80;99.90;;;;;;20854934;28;20045;-45
2022/01/27 22:41:09;;;;;;;6.00;1.25;;;6.50;99.90;;;;;;20843727;28;20345;-44
2022/01/27 22:51:09;;;;;;;3.25;0.82;;;6.40;99.90;;;;;;20833037;28;20041;-45
2022/01/27 23:01:10;;;;;;;4.50;0.70;;;6.20;99.90;;;;;;20796385;28;20057;-44
2022/01/27 23:11:12;;;;;;;1.40;0.40;;;6.10;99.90;;;;;;20806240;28;20276;-44
2022/01/27 23:31:31;;;;;;;1.77;0.50;;;5.80;99.90;;;;;;20813907;28;20409;-44
2022/01/27 23:41:46;;;;;;;8.25;0.70;;;5.80;99.90;;;;;;20798279;28;20151;-44
2022/01/27 23:52:02;;;;;;;3.13;0.47;;;5.80;99.90;;;;;;20817590;28;20037;-44
